createdAt,value
2019-02-17T00:01:52.763Z,22.40
2019-02-17T00:04:19.855Z,22.30
2019-02-17T00:06:47.060Z,22.30
2019-02-17T00:09:13.826Z,22.30
2019-02-17T00:11:40.689Z,22.20
2019-02-17T00:14:07.413Z,22.30
2019-02-17T00:16:34.135Z,22.20
2019-02-17T00:19:01.013Z,22.20
2019-02-17T00:21:27.838Z,22.10
2019-02-17T00:23:54.570Z,22.10
2019-02-17T00:26:21.403Z,22.00
2019-02-17T00:28:48.268Z,22.10
2019-02-17T00:31:15.134Z,22.40
2019-02-17T00:33:41.948Z,22.20
2019-02-17T00:36:08.784Z,22.10
2019-02-17T00:38:35.522Z,22.30
2019-02-17T00:41:02.245Z,22.30
2019-02-17T00:43:29.006Z,22.30
2019-02-17T00:45:55.940Z,22.40
2019-02-17T00:48:22.795Z,22.50
2019-02-17T00:50:49.524Z,22.50
2019-02-17T00:53:16.248Z,22.50
2019-02-17T00:55:43.322Z,22.50
2019-02-17T00:58:10.084Z,22.40
2019-02-17T01:00:37.863Z,22.40
2019-02-17T01:03:04.646Z,22.40
2019-02-17T01:05:32.005Z,22.30
2019-02-17T01:08:06.312Z,22.40
2019-02-17T01:10:32.950Z,22.30
2019-02-17T01:13:00.003Z,22.30
2019-02-17T01:15:27.257Z,22.40
2019-02-17T01:17:53.996Z,22.20
2019-02-17T01:20:20.846Z,22.10
2019-02-17T01:22:48.620Z,22.20
2019-02-17T01:25:15.347Z,22.20
2019-02-17T01:27:42.071Z,22.20
2019-02-17T01:30:09.794Z,22.30
2019-02-17T01:32:37.085Z,22.40
2019-02-17T01:35:03.822Z,22.40
2019-02-17T01:37:30.583Z,22.40
2019-02-17T01:39:57.711Z,22.50
2019-02-17T01:42:24.600Z,22.40
2019-02-17T01:44:51.601Z,22.30
2019-02-17T01:47:19.787Z,22.30
2019-02-17T01:49:46.888Z,22.30
2019-02-17T01:52:13.565Z,22.30
2019-02-17T01:54:40.309Z,22.20
2019-02-17T01:57:07.961Z,22.20
2019-02-17T01:59:34.909Z,22.30
2019-02-17T02:02:02.575Z,22.10
2019-02-17T02:04:30.320Z,22.30
2019-02-17T02:06:57.886Z,22.20
2019-02-17T02:09:25.221Z,22.10
2019-02-17T02:11:51.984Z,22.10
2019-02-17T02:14:19.922Z,22.10
2019-02-17T02:16:46.683Z,22.10
2019-02-17T02:19:13.430Z,22.00
2019-02-17T02:21:40.275Z,21.90
2019-02-17T02:24:07.169Z,21.90
2019-02-17T02:26:33.866Z,21.90
2019-02-17T02:29:01.281Z,21.90
2019-02-17T02:31:27.939Z,22.00
2019-02-17T02:33:54.789Z,22.00
2019-02-17T02:36:21.524Z,22.00
2019-02-17T02:38:48.261Z,22.00
2019-02-17T02:41:14.966Z,22.00
2019-02-17T02:43:41.750Z,22.10
2019-02-17T02:46:09.807Z,22.00
2019-02-17T02:48:38.267Z,22.10
2019-02-17T02:51:05.043Z,22.20
2019-02-17T02:53:31.879Z,22.20
2019-02-17T02:55:59.020Z,22.20
2019-02-17T02:58:25.866Z,22.30
2019-02-17T03:00:52.594Z,22.30
2019-02-17T03:03:19.301Z,22.20
2019-02-17T03:05:46.186Z,22.20
2019-02-17T03:08:13.873Z,22.10
2019-02-17T03:10:40.683Z,22.20
2019-02-17T03:13:07.428Z,22.20
2019-02-17T03:15:34.270Z,22.80
2019-02-17T03:18:01.111Z,22.20
2019-02-17T03:20:27.958Z,22.20
2019-02-17T03:22:54.786Z,22.20
2019-02-17T03:25:22.059Z,22.20
2019-02-17T03:27:48.891Z,22.20
2019-02-17T03:30:15.619Z,22.20
2019-02-17T03:32:42.358Z,22.40
2019-02-17T03:35:09.198Z,22.30
2019-02-17T03:37:35.942Z,22.30
2019-02-17T03:40:02.685Z,22.20
2019-02-17T03:42:29.532Z,22.20
2019-02-17T03:44:56.271Z,22.20
2019-02-17T03:47:24.136Z,22.10
2019-02-17T03:49:50.864Z,22.10
2019-02-17T03:52:18.960Z,22.10
2019-02-17T03:54:45.681Z,22.20
2019-02-17T03:57:12.411Z,22.20
2019-02-17T03:59:39.763Z,22.40
2019-02-17T04:02:06.513Z,22.30
2019-02-17T04:04:33.935Z,22.40
2019-02-17T04:07:00.699Z,22.40
2019-02-17T04:09:29.328Z,22.40
2019-02-17T04:11:56.135Z,22.40
2019-02-17T04:14:22.979Z,22.40
2019-02-17T04:16:49.720Z,22.40
2019-02-17T04:19:17.582Z,22.50
2019-02-17T04:21:44.321Z,22.50
2019-02-17T04:24:11.768Z,22.40
2019-02-17T04:26:39.224Z,22.40
2019-02-17T04:29:05.974Z,22.40
2019-02-17T04:31:32.702Z,22.40
2019-02-17T04:34:00.381Z,22.30
2019-02-17T04:36:27.211Z,22.20
2019-02-17T04:38:55.254Z,22.30
2019-02-17T04:41:22.021Z,22.30
2019-02-17T04:43:48.754Z,22.40
2019-02-17T04:46:15.492Z,22.30
2019-02-17T04:48:42.245Z,22.30
2019-02-17T04:51:08.935Z,22.30
2019-02-17T04:53:35.619Z,22.20
2019-02-17T04:56:02.345Z,22.70
2019-02-17T04:58:29.089Z,22.00
2019-02-17T05:00:56.030Z,22.10
2019-02-17T05:03:22.770Z,22.40
2019-02-17T05:05:49.510Z,22.20
2019-02-17T05:08:16.366Z,22.20
2019-02-17T05:10:43.091Z,22.20
2019-02-17T05:13:09.894Z,22.20
2019-02-17T05:15:36.678Z,22.30
2019-02-17T05:18:03.522Z,22.30
2019-02-17T05:20:30.427Z,22.40
2019-02-17T05:22:57.207Z,22.40
2019-02-17T05:25:24.037Z,22.40
2019-02-17T05:27:50.675Z,22.40
2019-02-17T05:30:17.435Z,22.30
2019-02-17T05:32:44.152Z,22.40
2019-02-17T05:35:10.904Z,22.30
2019-02-17T05:37:37.684Z,22.30
2019-02-17T05:40:04.480Z,22.90
2019-02-17T05:42:31.326Z,22.30
2019-02-17T05:44:58.167Z,22.40
2019-02-17T05:47:24.896Z,22.30
2019-02-17T05:49:51.737Z,22.40
2019-02-17T05:52:18.486Z,22.30
2019-02-17T05:54:45.218Z,22.30
2019-02-17T05:57:11.968Z,22.90
2019-02-17T05:59:38.692Z,22.40
2019-02-17T06:02:05.544Z,22.40
2019-02-17T06:04:32.284Z,22.40
2019-02-17T06:06:59.024Z,22.30
2019-02-17T06:09:25.868Z,22.40
2019-02-17T06:11:52.717Z,22.30
2019-02-17T06:14:19.549Z,22.30
2019-02-17T06:16:46.403Z,22.30
2019-02-17T06:19:13.234Z,22.30
2019-02-17T06:21:40.080Z,22.20
2019-02-17T06:24:07.120Z,22.20
2019-02-17T06:26:33.919Z,22.20
2019-02-17T06:29:00.599Z,22.10
2019-02-17T06:31:27.456Z,22.20
2019-02-17T06:33:54.296Z,22.30
2019-02-17T06:36:21.051Z,22.30
2019-02-17T06:38:47.967Z,22.20
2019-02-17T06:41:14.806Z,22.20
2019-02-17T06:43:41.566Z,22.20
2019-02-17T06:46:08.391Z,22.20
2019-02-17T06:48:35.130Z,22.10
2019-02-17T06:51:01.961Z,22.10
2019-02-17T06:53:28.701Z,22.60
2019-02-17T06:55:55.447Z,21.90
2019-02-17T06:58:22.182Z,21.80
2019-02-17T07:00:48.815Z,21.60
2019-02-17T07:03:15.669Z,21.40
2019-02-17T07:05:42.408Z,21.20
2019-02-17T07:08:09.236Z,20.90
2019-02-17T07:10:35.978Z,20.70
2019-02-17T07:13:02.631Z,20.50
2019-02-17T07:15:29.464Z,20.10
2019-02-17T07:17:56.202Z,19.80
2019-02-17T07:20:22.904Z,19.60
2019-02-17T07:22:49.689Z,19.50
2019-02-17T07:25:16.411Z,19.50
2019-02-17T07:27:43.780Z,19.60
2019-02-17T07:30:10.522Z,19.30
2019-02-17T07:32:37.370Z,19.30
2019-02-17T07:35:04.300Z,19.20
2019-02-17T07:37:33.475Z,19.10
2019-02-17T07:39:59.510Z,18.90
2019-02-17T07:42:26.312Z,19.00
2019-02-17T07:44:53.091Z,18.90
2019-02-17T07:47:20.035Z,19.20
2019-02-17T07:49:47.114Z,20.00
2019-02-17T07:52:14.128Z,19.20
2019-02-17T07:54:41.441Z,19.10
2019-02-17T07:57:08.224Z,19.30
2019-02-17T07:59:34.968Z,18.70
2019-02-17T08:02:01.711Z,18.90
2019-02-17T08:04:28.778Z,18.40
2019-02-17T08:06:55.697Z,18.50
2019-02-17T08:09:22.750Z,18.40
2019-02-17T08:11:50.206Z,18.50
2019-02-17T08:14:17.071Z,18.50
2019-02-17T08:16:43.801Z,18.10
2019-02-17T08:19:10.500Z,17.90
2019-02-17T08:21:37.313Z,17.60
2019-02-17T08:24:04.093Z,17.40
2019-02-17T08:26:31.252Z,18.20
2019-02-17T08:28:58.697Z,17.90
2019-02-17T08:31:25.439Z,17.50
2019-02-17T08:33:52.380Z,17.80
2019-02-17T08:36:19.359Z,17.80
2019-02-17T08:38:46.074Z,18.40
2019-02-17T08:41:12.817Z,17.90
2019-02-17T08:43:39.549Z,18.20
2019-02-17T08:46:06.291Z,17.70
2019-02-17T08:48:33.132Z,17.70
2019-02-17T08:50:59.864Z,17.10
2019-02-17T08:53:26.602Z,16.60
2019-02-17T08:55:53.765Z,16.10
2019-02-17T08:58:20.503Z,15.30
2019-02-17T09:00:47.343Z,15.00
2019-02-17T09:03:14.284Z,14.50
2019-02-17T09:05:44.174Z,14.20
2019-02-17T09:08:09.399Z,13.10
2019-02-17T09:10:36.236Z,13.00
2019-02-17T09:13:02.979Z,12.60
2019-02-17T09:15:29.815Z,12.10
2019-02-17T09:17:56.453Z,11.20
2019-02-17T09:20:23.195Z,11.40
2019-02-17T09:22:50.498Z,11.00
2019-02-17T09:25:19.087Z,10.50
2019-02-17T09:27:46.008Z,10.40
2019-02-17T09:30:13.046Z,10.20
2019-02-17T09:32:39.867Z,9.30
2019-02-17T09:35:06.706Z,9.00
2019-02-17T09:37:33.549Z,9.10
2019-02-17T09:40:00.352Z,9.00
2019-02-17T09:42:27.062Z,8.50
2019-02-17T09:44:53.881Z,8.50
2019-02-17T09:47:20.601Z,7.90
2019-02-17T09:49:47.451Z,8.40
2019-02-17T09:52:14.291Z,8.00
2019-02-17T09:54:41.022Z,7.10
2019-02-17T09:57:07.660Z,6.80
2019-02-17T09:59:34.412Z,7.40
2019-02-17T10:02:01.146Z,7.00
2019-02-17T10:04:27.990Z,6.60
2019-02-17T10:06:54.826Z,7.00
2019-02-17T10:09:21.568Z,6.70
2019-02-17T10:11:48.506Z,6.70
2019-02-17T10:14:15.560Z,7.00
2019-02-17T10:16:42.258Z,7.00
2019-02-17T10:19:09.132Z,6.90
2019-02-17T10:21:35.976Z,6.70
2019-02-17T10:24:02.702Z,6.40
2019-02-17T10:26:29.452Z,6.60
2019-02-17T10:28:56.332Z,6.60
2019-02-17T10:31:23.136Z,6.80
2019-02-17T10:33:49.984Z,6.30
2019-02-17T10:36:16.827Z,6.00
2019-02-17T10:38:43.557Z,6.00
2019-02-17T10:41:10.298Z,5.70
2019-02-17T10:43:37.036Z,5.90
2019-02-17T10:46:05.977Z,5.50
2019-02-17T10:48:32.264Z,5.20
2019-02-17T10:50:59.111Z,5.60
2019-02-17T10:53:25.802Z,5.20
2019-02-17T10:55:52.473Z,5.40
2019-02-17T10:58:19.179Z,5.30
2019-02-17T11:00:45.850Z,5.30
2019-02-17T11:03:12.596Z,5.10
2019-02-17T11:05:39.329Z,4.90
2019-02-17T11:08:06.076Z,5.00
2019-02-17T11:10:32.804Z,4.80
2019-02-17T11:12:59.551Z,4.40
2019-02-17T11:15:26.283Z,4.40
2019-02-17T11:17:52.938Z,4.70
2019-02-17T11:20:19.665Z,4.80
2019-02-17T11:22:46.299Z,4.50
2019-02-17T11:25:13.038Z,4.60
2019-02-17T11:27:39.787Z,5.60
2019-02-17T11:30:06.620Z,5.10
2019-02-17T11:32:33.369Z,5.80
2019-02-17T11:35:00.343Z,5.70
2019-02-17T11:37:27.151Z,6.30
2019-02-17T11:39:53.890Z,6.80
2019-02-17T11:42:20.736Z,6.70
2019-02-17T11:44:47.469Z,6.70
2019-02-17T11:47:14.163Z,6.60
2019-02-17T11:49:40.851Z,6.30
2019-02-17T11:52:07.566Z,5.80
2019-02-17T11:54:34.345Z,6.00
2019-02-17T11:57:01.181Z,5.70
2019-02-17T11:59:27.928Z,5.80
2019-02-17T12:01:54.685Z,6.10
2019-02-17T12:04:21.588Z,5.70
2019-02-17T12:06:48.434Z,5.60
2019-02-17T12:09:15.176Z,5.30
2019-02-17T12:11:41.931Z,5.00
2019-02-17T12:14:08.856Z,5.10
2019-02-17T12:16:37.213Z,5.20
2019-02-17T12:19:04.176Z,5.00
2019-02-17T12:21:30.917Z,5.20
2019-02-17T12:23:57.653Z,5.20
2019-02-17T12:26:24.384Z,5.60
2019-02-17T12:28:51.122Z,6.20
2019-02-17T12:31:17.760Z,5.60
2019-02-17T12:33:44.462Z,6.00
2019-02-17T12:36:11.144Z,6.40
2019-02-17T12:38:37.846Z,6.30
2019-02-17T12:41:04.625Z,6.50
2019-02-17T12:43:31.359Z,6.20
2019-02-17T12:45:58.092Z,7.00
2019-02-17T12:48:24.835Z,6.50
2019-02-17T12:50:51.685Z,7.10
2019-02-17T12:53:18.434Z,6.90
2019-02-17T12:55:45.162Z,7.10
2019-02-17T12:58:11.975Z,7.00
2019-02-17T13:00:38.632Z,7.40
2019-02-17T13:03:05.481Z,8.00
2019-02-17T13:05:32.324Z,7.70
2019-02-17T13:07:59.064Z,7.90
2019-02-17T13:10:25.903Z,7.80
2019-02-17T13:12:52.755Z,7.80
2019-02-17T13:15:19.487Z,8.20
2019-02-17T13:17:46.213Z,8.40
2019-02-17T13:20:12.851Z,8.40
2019-02-17T13:22:39.600Z,8.30
2019-02-17T13:25:06.327Z,7.50
2019-02-17T13:27:33.181Z,7.90
2019-02-17T13:29:59.915Z,7.10
2019-02-17T13:32:26.762Z,7.70
2019-02-17T13:34:53.608Z,6.60
2019-02-17T13:37:20.340Z,6.40
2019-02-17T13:39:47.080Z,6.60
2019-02-17T13:42:13.923Z,5.20
2019-02-17T13:44:40.668Z,5.20
2019-02-17T13:47:07.606Z,5.10
2019-02-17T13:49:34.336Z,4.30
2019-02-17T13:52:00.970Z,4.50
2019-02-17T13:54:27.712Z,4.20
2019-02-17T13:56:54.448Z,3.60
2019-02-17T13:59:21.105Z,3.80
2019-02-17T14:01:47.831Z,4.10
2019-02-17T14:04:14.564Z,4.40
2019-02-17T14:06:41.216Z,3.40
2019-02-17T14:09:08.041Z,3.00
2019-02-17T14:11:34.684Z,3.20
2019-02-17T14:14:01.430Z,3.50
2019-02-17T14:16:28.124Z,3.10
2019-02-17T14:18:54.806Z,3.40
2019-02-17T14:21:21.544Z,3.60
2019-02-17T14:23:48.274Z,3.90
2019-02-17T14:26:15.023Z,4.20
2019-02-17T14:28:41.868Z,4.40
2019-02-17T14:31:08.616Z,4.20
2019-02-17T14:33:35.334Z,5.10
2019-02-17T14:36:02.101Z,4.50
2019-02-17T14:38:28.760Z,5.30
2019-02-17T14:40:55.564Z,5.10
2019-02-17T14:43:22.295Z,5.10
2019-02-17T14:45:49.031Z,6.10
2019-02-17T14:48:15.883Z,5.60
2019-02-17T14:50:42.617Z,5.90
2019-02-17T14:53:09.352Z,6.10
2019-02-17T14:55:36.101Z,6.00
2019-02-17T14:58:05.540Z,6.30
2019-02-17T15:00:31.418Z,6.50
2019-02-17T15:02:58.265Z,6.60
2019-02-17T15:05:25.810Z,6.70
2019-02-17T15:07:52.581Z,6.70
2019-02-17T15:10:19.222Z,6.80
2019-02-17T15:12:46.034Z,7.10
2019-02-17T15:15:12.772Z,7.00
2019-02-17T15:17:39.478Z,7.40
2019-02-17T15:20:06.255Z,7.70
2019-02-17T15:22:32.992Z,7.80
2019-02-17T15:24:59.726Z,8.10
2019-02-17T15:27:26.467Z,8.50
2019-02-17T15:29:53.227Z,8.80
2019-02-17T15:32:20.264Z,9.00
2019-02-17T15:34:47.033Z,9.20
2019-02-17T15:37:13.833Z,9.70
2019-02-17T15:39:41.733Z,9.80
2019-02-17T15:42:09.350Z,10.20
2019-02-17T15:44:36.506Z,10.40
2019-02-17T15:47:03.247Z,10.60
2019-02-17T15:49:30.108Z,10.90
2019-02-17T15:51:56.958Z,11.20
2019-02-17T15:54:23.779Z,11.20
2019-02-17T15:56:53.928Z,11.50
2019-02-17T15:59:21.557Z,11.50
2019-02-17T16:01:48.398Z,11.90
2019-02-17T16:04:15.260Z,12.20
2019-02-17T16:06:41.976Z,12.10
2019-02-17T16:09:08.840Z,12.40
2019-02-17T16:11:35.671Z,12.60
2019-02-17T16:14:02.426Z,12.80
2019-02-17T16:16:29.340Z,12.90
2019-02-17T16:18:56.300Z,13.20
2019-02-17T16:21:23.583Z,13.40
2019-02-17T16:23:50.713Z,13.40
2019-02-17T16:26:17.691Z,13.60
2019-02-17T16:28:44.326Z,13.80
2019-02-17T16:31:11.829Z,13.80
2019-02-17T16:33:39.464Z,14.00
2019-02-17T16:36:06.235Z,14.20
2019-02-17T16:38:33.442Z,14.50
2019-02-17T16:41:00.383Z,14.40
2019-02-17T16:43:27.161Z,14.60
2019-02-17T16:45:53.896Z,14.60
2019-02-17T16:48:20.653Z,14.60
2019-02-17T16:50:47.483Z,15.10
2019-02-17T16:53:14.225Z,15.10
2019-02-17T16:55:41.366Z,15.30
2019-02-17T16:58:08.514Z,15.70
2019-02-17T17:00:35.253Z,15.80
2019-02-17T17:03:02.107Z,15.70
2019-02-17T17:05:28.835Z,15.80
2019-02-17T17:07:55.576Z,16.10
2019-02-17T17:10:22.443Z,16.20
2019-02-17T17:12:49.165Z,16.10
2019-02-17T17:15:16.006Z,16.40
2019-02-17T17:17:42.894Z,16.40
2019-02-17T17:20:09.963Z,16.20
2019-02-17T17:22:36.950Z,16.60
2019-02-17T17:25:03.683Z,16.60
2019-02-17T17:27:30.532Z,16.90
2019-02-17T17:29:57.258Z,16.80
2019-02-17T17:32:23.996Z,16.90
2019-02-17T17:34:58.648Z,17.00
2019-02-17T17:37:19.225Z,16.90
2019-02-17T17:39:46.057Z,17.00
2019-02-17T17:42:13.005Z,17.20
2019-02-17T17:44:39.853Z,16.70
2019-02-17T17:47:06.588Z,17.10
2019-02-17T17:49:33.467Z,17.50
2019-02-17T17:52:00.274Z,17.50
2019-02-17T17:54:27.004Z,17.40
2019-02-17T17:56:53.853Z,17.60
2019-02-17T17:59:20.695Z,17.50
2019-02-17T18:01:47.386Z,17.60
2019-02-17T18:04:14.549Z,17.80
2019-02-17T18:06:41.323Z,18.00
2019-02-17T18:09:08.162Z,17.70
2019-02-17T18:11:35.097Z,18.20
2019-02-17T18:14:02.338Z,18.20
2019-02-17T18:16:29.198Z,18.20
2019-02-17T18:18:55.909Z,18.30
2019-02-17T18:21:23.293Z,18.60
2019-02-17T18:23:50.024Z,18.60
2019-02-17T18:26:16.760Z,18.50
2019-02-17T18:28:43.828Z,18.80
2019-02-17T18:31:10.663Z,18.80
2019-02-17T18:33:37.389Z,18.70
2019-02-17T18:36:04.264Z,18.70
2019-02-17T18:38:31.078Z,18.80
2019-02-17T18:40:57.932Z,19.50
2019-02-17T18:43:25.862Z,19.00
2019-02-17T18:45:52.736Z,19.20
2019-02-17T18:48:19.571Z,19.20
2019-02-17T18:50:46.301Z,19.00
2019-02-17T18:53:15.254Z,19.10
2019-02-17T18:55:41.466Z,19.00
2019-02-17T18:58:08.644Z,19.20
2019-02-17T19:00:35.867Z,18.90
2019-02-17T19:03:02.780Z,19.20
2019-02-17T19:05:32.317Z,19.20
2019-02-17T19:07:58.133Z,19.40
2019-02-17T19:10:25.376Z,19.80
2019-02-17T19:12:52.197Z,19.30
2019-02-17T19:15:19.048Z,19.40
2019-02-17T19:17:46.067Z,19.40
2019-02-17T19:20:12.820Z,19.40
2019-02-17T19:22:39.544Z,19.70
2019-02-17T19:25:06.298Z,19.70
2019-02-17T19:27:33.024Z,19.80
2019-02-17T19:29:59.827Z,19.90
2019-02-17T19:32:26.646Z,19.80
2019-02-17T19:34:53.456Z,19.90
2019-02-17T19:37:20.191Z,20.60
2019-02-17T19:39:46.954Z,20.20
2019-02-17T19:42:13.727Z,20.10
2019-02-17T19:44:40.524Z,20.30
2019-02-17T19:47:07.247Z,20.40
2019-02-17T19:49:33.960Z,20.60
2019-02-17T19:52:00.737Z,20.60
2019-02-17T19:54:27.571Z,20.50
2019-02-17T19:56:54.313Z,20.70
2019-02-17T19:59:21.044Z,20.40
2019-02-17T20:01:47.792Z,20.70
2019-02-17T20:04:14.533Z,21.00
2019-02-17T20:06:41.387Z,21.00
2019-02-17T20:09:08.099Z,20.80
2019-02-17T20:11:34.952Z,20.80
2019-02-17T20:14:01.798Z,21.00
2019-02-17T20:16:28.532Z,21.00
2019-02-17T20:18:55.392Z,21.10
2019-02-17T20:21:22.225Z,21.40
2019-02-17T20:23:48.958Z,21.20
2019-02-17T20:26:15.798Z,21.20
2019-02-17T20:28:43.654Z,21.20
2019-02-17T20:31:10.722Z,21.20
2019-02-17T20:33:37.428Z,21.40
2019-02-17T20:36:04.196Z,21.40
2019-02-17T20:38:31.031Z,21.50
2019-02-17T20:40:57.877Z,21.50
2019-02-17T20:43:24.707Z,21.30
2019-02-17T20:45:51.456Z,21.50
2019-02-17T20:48:18.297Z,21.50
2019-02-17T20:50:45.549Z,21.30
2019-02-17T20:53:12.390Z,21.30
2019-02-17T20:55:39.230Z,21.40
2019-02-17T20:58:06.661Z,21.70
2019-02-17T21:00:33.415Z,21.70
2019-02-17T21:03:00.181Z,21.50
2019-02-17T21:05:26.902Z,21.50
2019-02-17T21:07:53.741Z,21.80
2019-02-17T21:10:20.693Z,21.90
2019-02-17T21:12:47.428Z,21.90
2019-02-17T21:15:14.267Z,21.80
2019-02-17T21:17:41.119Z,21.80
2019-02-17T21:20:08.366Z,22.00
2019-02-17T21:22:35.185Z,22.00
2019-02-17T21:25:02.154Z,21.90
2019-02-17T21:27:28.993Z,22.00
2019-02-17T21:29:55.737Z,22.00
2019-02-17T21:32:22.569Z,21.90
2019-02-17T21:34:49.301Z,21.90
2019-02-17T21:37:16.919Z,21.90
2019-02-17T21:39:44.211Z,22.10
2019-02-17T21:42:10.975Z,22.10
2019-02-17T21:44:37.819Z,22.10
2019-02-17T21:47:04.876Z,21.90
2019-02-17T21:49:31.683Z,22.00
2019-02-17T21:51:58.450Z,22.00
2019-02-17T21:54:25.281Z,22.00
2019-02-17T21:56:52.122Z,22.10
2019-02-17T21:59:18.965Z,22.30
2019-02-17T22:01:46.238Z,22.10
2019-02-17T22:04:12.981Z,22.40
2019-02-17T22:06:39.894Z,22.30
2019-02-17T22:09:06.731Z,22.40
2019-02-17T22:11:33.476Z,22.20
2019-02-17T22:14:00.323Z,22.40
2019-02-17T22:16:27.060Z,22.40
2019-02-17T22:18:53.898Z,22.40
2019-02-17T22:21:20.735Z,22.40
2019-02-17T22:23:47.439Z,22.40
2019-02-17T22:26:14.219Z,22.40
2019-02-17T22:28:41.063Z,22.50
2019-02-17T22:31:07.787Z,22.50
2019-02-17T22:33:34.627Z,22.50
2019-02-17T22:36:01.367Z,22.50
2019-02-17T22:38:28.007Z,22.50
2019-02-17T22:40:54.707Z,22.50
2019-02-17T22:43:21.395Z,22.60
2019-02-17T22:45:48.219Z,22.60
2019-02-17T22:48:14.861Z,22.60
2019-02-17T22:50:41.596Z,22.70
2019-02-17T22:53:08.335Z,22.60
2019-02-17T22:55:35.138Z,22.40
2019-02-17T22:58:01.921Z,22.50
2019-02-17T23:00:28.873Z,22.50
2019-02-17T23:02:55.624Z,22.60
2019-02-17T23:05:22.468Z,22.50
2019-02-17T23:07:49.404Z,22.50
2019-02-17T23:10:16.140Z,22.60
2019-02-17T23:12:42.980Z,22.60
2019-02-17T23:15:09.808Z,22.60
2019-02-17T23:17:36.583Z,22.60
2019-02-17T23:20:03.389Z,22.60
2019-02-17T23:22:30.238Z,22.70
2019-02-17T23:24:56.981Z,22.60
2019-02-17T23:27:23.820Z,22.70
2019-02-17T23:29:52.096Z,22.70
2019-02-17T23:32:20.893Z,22.80
2019-02-17T23:34:49.369Z,22.90
2019-02-17T23:37:17.379Z,22.70
2019-02-17T23:39:44.391Z,22.70
2019-02-17T23:42:11.912Z,22.90
2019-02-17T23:44:39.588Z,22.90
2019-02-17T23:47:07.363Z,22.80
2019-02-17T23:49:34.104Z,22.90
2019-02-17T23:52:00.941Z,22.70
2019-02-17T23:54:27.643Z,22.80
2019-02-17T23:56:54.318Z,22.70
2019-02-17T23:59:21.662Z,22.70
